Time;durP1;ratioP1;P1;durP2;ratioP2;P2;SDS_P1;SDS_P2;PMS_P1;PMS_P2;Temp;Humidity;BMP_temperature;BMP_pressure;BME280_temperature;BME280_humidity;BME280_pressure;Samples;Min_cycle;Max_cycle;Signal;HPM_P1;HPM_P2
2022/10/07 00:01:54;;;;;;;8.65;4.97;;;10.10;99.90;;;;;;5069017;28;20035;-82
2022/10/07 00:04:20;;;;;;;7.93;5.63;;;10.10;99.90;;;;;;5069604;28;20059;-81
2022/10/07 00:06:46;;;;;;;11.10;5.40;;;10.10;99.90;;;;;;5066954;28;20397;-82
2022/10/07 00:09:12;;;;;;;12.40;6.22;;;10.10;99.90;;;;;;5054574;28;20031;-80
2022/10/07 00:11:37;;;;;;;10.45;6.22;;;10.10;99.90;;;;;;5066479;28;20099;-81
2022/10/07 00:14:06;;;;;;;12.10;5.80;;;10.10;99.90;;;;;;5069052;28;20032;-82
2022/10/07 00:16:38;;;;;;;8.93;5.47;;;10.00;99.90;;;;;;5069912;28;20470;-82
2022/10/07 00:19:06;;;;;;;8.47;4.90;;;10.00;99.90;;;;;;5068235;28;20021;-80
2022/10/07 00:21:33;;;;;;;11.00;6.38;;;10.00;99.90;;;;;;5067054;28;20090;-82
2022/10/07 00:23:59;;;;;;;7.80;5.75;;;10.00;99.90;;;;;;5068476;28;20504;-82
2022/10/07 00:26:27;;;;;;;10.43;5.82;;;10.00;99.90;;;;;;5049650;28;20067;-80
2022/10/07 00:28:53;;;;;;;6.05;5.15;;;10.00;99.90;;;;;;5065709;28;20029;-81
2022/10/07 00:31:22;;;;;;;11.52;6.55;;;10.00;99.90;;;;;;5068645;28;20463;-80
2022/10/07 00:33:48;;;;;;;11.32;5.60;;;10.00;99.90;;;;;;5071061;28;20060;-84
2022/10/07 00:36:22;;;;;;;11.30;5.55;;;9.90;99.90;;;;;;5071506;28;20060;-83
2022/10/07 00:38:56;;;;;;;10.20;5.65;;;9.90;99.90;;;;;;5068680;28;20029;-82
2022/10/07 00:41:31;;;;;;;9.52;5.55;;;9.90;99.90;;;;;;5063702;28;20418;-82
2022/10/07 00:43:58;;;;;;;8.05;4.90;;;9.90;99.90;;;;;;5060442;28;20041;-81
2022/10/07 00:46:32;;;;;;;12.90;5.65;;;9.80;99.90;;;;;;5071870;28;20044;-82
2022/10/07 00:49:01;;;;;;;9.25;5.15;;;9.80;99.90;;;;;;5051533;28;20035;-83
2022/10/07 00:51:28;;;;;;;9.93;5.22;;;9.80;99.90;;;;;;5075151;28;20028;-80
2022/10/07 00:53:55;;;;;;;8.98;5.07;;;9.80;99.90;;;;;;5075717;28;20028;-80
2022/10/07 00:56:23;;;;;;;7.78;4.90;;;9.80;99.90;;;;;;5071037;28;20482;-80
2022/10/07 00:58:49;;;;;;;10.35;6.10;;;9.70;99.90;;;;;;5062625;28;20036;-79
2022/10/07 01:01:17;;;;;;;10.38;4.30;;;9.70;99.90;;;;;;5072097;28;20540;-82
2022/10/07 01:03:44;;;;;;;9.30;5.03;;;9.70;99.90;;;;;;5052508;28;20119;-80
2022/10/07 01:06:10;;;;;;;11.23;5.32;;;9.70;99.90;;;;;;5066829;28;20067;-82
2022/10/07 01:08:35;;;;;;;9.55;4.50;;;9.70;99.90;;;;;;5064301;28;20482;-81
2022/10/07 01:11:35;;;;;;;9.13;4.70;;;9.60;99.90;;;;;;5066691;28;20638;-82
2022/10/07 01:14:33;;;;;;;8.80;4.57;;;9.60;99.90;;;;;;5072945;28;20029;-83
2022/10/07 01:17:23;;;;;;;7.28;4.60;;;9.60;99.90;;;;;;5072053;28;20028;-82
2022/10/07 01:20:10;;;;;;;10.32;5.07;;;9.60;99.90;;;;;;5065294;28;20046;-83
2022/10/07 01:22:53;;;;;;;11.82;5.07;;;9.50;99.90;;;;;;5062755;28;20032;-83
2022/10/07 01:25:31;;;;;;;4.55;3.35;;;9.50;99.90;;;;;;5066139;28;20039;-80
2022/10/07 01:28:06;;;;;;;9.23;4.93;;;9.50;99.90;;;;;;5068578;28;20028;-81
2022/10/07 01:30:40;;;;;;;8.93;4.72;;;9.50;99.90;;;;;;5076751;28;20025;-80
2022/10/07 01:33:12;;;;;;;8.05;4.70;;;9.50;99.90;;;;;;5071545;28;20036;-80
2022/10/07 01:35:41;;;;;;;4.88;4.18;;;9.50;99.90;;;;;;5063906;28;20039;-81
2022/10/07 01:38:09;;;;;;;13.27;4.63;;;9.50;99.90;;;;;;5075392;28;20037;-80
2022/10/07 01:40:45;;;;;;;8.75;5.45;;;9.40;99.90;;;;;;5073896;28;20052;-80
2022/10/07 01:43:14;;;;;;;10.82;6.63;;;9.40;99.90;;;;;;5072289;28;20585;-81
2022/10/07 01:45:40;;;;;;;7.45;4.60;;;9.40;99.90;;;;;;5070961;28;20048;-83
2022/10/07 01:48:06;;;;;;;11.07;5.47;;;9.40;99.90;;;;;;5069356;28;20032;-82
2022/10/07 01:50:32;;;;;;;5.88;4.90;;;9.40;99.90;;;;;;5062925;28;20028;-81
2022/10/07 01:53:14;;;;;;;10.88;5.97;;;9.40;99.90;;;;;;5075646;28;20051;-82
2022/10/07 01:55:44;;;;;;;9.60;5.43;;;9.40;99.90;;;;;;5072508;28;20085;-85
2022/10/07 01:58:29;;;;;;;7.25;5.13;;;9.40;99.90;;;;;;5070424;28;20397;-82
2022/10/07 02:01:15;;;;;;;10.23;4.72;;;9.40;99.90;;;;;;5068185;28;20024;-82
2022/10/07 02:04:03;;;;;;;13.07;5.43;;;9.40;99.90;;;;;;5069913;28;20016;-81
2022/10/07 02:06:31;;;;;;;11.88;5.88;;;9.40;99.90;;;;;;5051265;28;20383;-81
2022/10/07 02:09:02;;;;;;;8.57;5.75;;;9.40;99.90;;;;;;5070042;28;20033;-81
2022/10/07 02:11:31;;;;;;;7.68;5.88;;;9.40;99.90;;;;;;5066720;28;20040;-81
2022/10/07 02:14:18;;;;;;;16.77;5.45;;;9.40;99.90;;;;;;5063243;28;20028;-83
2022/10/07 02:16:50;;;;;;;8.57;5.43;;;9.40;99.90;;;;;;5068521;28;20036;-81
2022/10/07 02:19:32;;;;;;;6.70;5.50;;;9.40;99.90;;;;;;5070318;28;20490;-81
2022/10/07 02:22:03;;;;;;;13.30;5.43;;;9.40;99.90;;;;;;5068838;28;20398;-83
2022/10/07 02:24:31;;;;;;;7.72;5.82;;;9.40;99.90;;;;;;5072834;28;20086;-82
2022/10/07 02:27:02;;;;;;;7.38;4.95;;;9.40;99.90;;;;;;5068968;28;20047;-81
2022/10/07 02:29:31;;;;;;;6.07;5.13;;;9.40;99.90;;;;;;5051402;28;20028;-81
2022/10/07 02:31:59;;;;;;;6.97;5.00;;;9.40;99.90;;;;;;5069065;28;20239;-81
2022/10/07 02:34:27;;;;;;;11.80;5.88;;;9.40;99.90;;;;;;5072260;28;20043;-83
2022/10/07 02:36:57;;;;;;;8.60;5.03;;;9.30;99.90;;;;;;5068495;28;20830;-82
2022/10/07 02:39:23;;;;;;;6.95;5.20;;;9.30;99.90;;;;;;5069321;28;20051;-83
2022/10/07 02:42:05;;;;;;;6.15;5.10;;;9.30;99.90;;;;;;5068991;28;20032;-80
2022/10/07 02:45:01;;;;;;;7.32;4.22;;;9.30;99.90;;;;;;5066746;28;20324;-82
2022/10/07 02:47:31;;;;;;;10.38;5.60;;;9.30;99.90;;;;;;5065380;28;20089;-82
2022/10/07 02:50:00;;;;;;;18.98;6.30;;;9.30;99.90;;;;;;5069267;28;20025;-82
2022/10/07 02:52:30;;;;;;;6.93;5.30;;;9.30;99.90;;;;;;5064760;28;20025;-83
2022/10/07 02:55:03;;;;;;;10.55;6.35;;;9.20;99.90;;;;;;5067816;28;20087;-81
2022/10/07 02:57:33;;;;;;;9.00;5.97;;;9.20;99.90;;;;;;5061863;28;20069;-81
2022/10/07 03:00:00;;;;;;;7.38;6.03;;;9.20;99.90;;;;;;5069827;28;20839;-81
2022/10/07 03:02:41;;;;;;;11.63;5.68;;;9.20;99.90;;;;;;5066735;28;20051;-82
2022/10/07 03:05:08;;;;;;;12.35;6.38;;;9.20;99.90;;;;;;5063796;28;20120;-81
2022/10/07 03:07:34;;;;;;;9.63;7.25;;;9.10;99.90;;;;;;5068325;28;20020;-82
2022/10/07 03:10:01;;;;;;;7.88;5.60;;;9.10;99.90;;;;;;5069483;28;20032;-80
2022/10/07 03:12:27;;;;;;;10.00;6.03;;;9.10;99.90;;;;;;5068196;28;20121;-82
2022/10/07 03:14:53;;;;;;;9.45;5.85;;;9.10;99.90;;;;;;5069722;28;20036;-81
2022/10/07 03:17:19;;;;;;;8.85;6.07;;;9.10;99.90;;;;;;5066704;28;20035;-80
2022/10/07 03:19:44;;;;;;;7.93;5.65;;;9.10;99.90;;;;;;5047469;28;20040;-81
2022/10/07 03:22:10;;;;;;;7.35;5.75;;;9.10;99.90;;;;;;5067823;28;20029;-84
2022/10/07 03:24:36;;;;;;;10.30;6.35;;;9.00;99.90;;;;;;5067712;28;20478;-81
2022/10/07 03:27:04;;;;;;;11.90;6.53;;;9.10;99.90;;;;;;5067788;28;22114;-81
2022/10/07 03:29:31;;;;;;;9.45;6.13;;;9.10;99.90;;;;;;5068128;28;20123;-80
2022/10/07 03:31:57;;;;;;;8.23;5.78;;;9.10;99.90;;;;;;5071996;28;20025;-80
2022/10/07 03:34:22;;;;;;;12.02;5.75;;;9.10;99.90;;;;;;5068694;28;20040;-81
2022/10/07 03:36:48;;;;;;;10.30;6.60;;;9.00;99.90;;;;;;5062665;28;20432;-80
2022/10/07 03:39:13;;;;;;;14.13;5.93;;;9.10;99.90;;;;;;5069300;28;20032;-81
2022/10/07 03:41:40;;;;;;;13.98;6.82;;;9.00;99.90;;;;;;5068541;28;20029;-81
2022/10/07 03:44:06;;;;;;;10.02;6.45;;;9.10;99.90;;;;;;5069468;28;20375;-81
2022/10/07 03:46:31;;;;;;;12.38;6.18;;;9.10;99.90;;;;;;5067760;28;20037;-81
2022/10/07 03:48:57;;;;;;;14.48;6.30;;;9.10;99.90;;;;;;5053361;28;20124;-82
2022/10/07 03:51:23;;;;;;;10.75;5.90;;;9.10;99.90;;;;;;5068329;28;20099;-81
2022/10/07 03:53:48;;;;;;;12.30;6.97;;;9.10;99.90;;;;;;5055952;28;20522;-81
2022/10/07 03:56:14;;;;;;;9.48;6.20;;;9.10;99.90;;;;;;5069280;28;20072;-81
2022/10/07 03:58:39;;;;;;;10.63;6.65;;;9.00;99.90;;;;;;5073327;28;20089;-83
2022/10/07 04:01:07;;;;;;;9.75;5.80;;;9.00;99.90;;;;;;5053969;28;20119;-82
2022/10/07 04:03:32;;;;;;;10.90;6.82;;;9.00;99.90;;;;;;5077031;28;20653;-81
2022/10/07 04:05:59;;;;;;;14.05;6.47;;;9.00;99.90;;;;;;5058903;28;20036;-82
2022/10/07 04:08:27;;;;;;;10.48;6.20;;;9.00;99.90;;;;;;5070004;28;20029;-81
2022/10/07 04:10:52;;;;;;;7.20;5.70;;;8.90;99.90;;;;;;5073732;28;20063;-82
2022/10/07 04:13:18;;;;;;;9.48;5.88;;;8.90;99.90;;;;;;5072486;28;20478;-81
2022/10/07 04:15:44;;;;;;;8.60;6.53;;;8.90;99.90;;;;;;5070158;28;20405;-81
2022/10/07 04:18:10;;;;;;;15.50;6.78;;;8.90;99.90;;;;;;5053904;28;20088;-81
2022/10/07 04:20:37;;;;;;;9.00;6.47;;;8.90;99.90;;;;;;5069979;28;20033;-83
2022/10/07 04:23:02;;;;;;;10.02;6.32;;;8.90;99.90;;;;;;5073703;28;20033;-82
2022/10/07 04:25:34;;;;;;;8.80;5.82;;;8.90;99.90;;;;;;5071832;28;20040;-81
2022/10/07 04:28:11;;;;;;;9.93;7.03;;;8.90;99.90;;;;;;5066601;28;20039;-81
2022/10/07 04:30:38;;;;;;;10.82;6.00;;;8.90;99.90;;;;;;5070745;28;20063;-81
2022/10/07 04:33:05;;;;;;;11.45;6.18;;;8.80;99.90;;;;;;5071859;28;20081;-81
2022/10/07 04:35:30;;;;;;;9.93;6.65;;;8.80;99.90;;;;;;5071563;28;20031;-81
2022/10/07 04:37:56;;;;;;;13.48;5.97;;;8.80;99.90;;;;;;5071527;28;20032;-81
2022/10/07 04:40:23;;;;;;;10.40;5.97;;;8.80;99.90;;;;;;5073710;28;20482;-81
2022/10/07 04:45:34;;;;;;;15.98;6.82;;;8.80;99.90;;;;;;5068699;28;20089;-83
2022/10/07 04:48:01;;;;;;;10.05;6.22;;;8.70;99.90;;;;;;5055732;28;20088;-83
2022/10/07 04:50:27;;;;;;;13.35;6.65;;;8.60;99.90;;;;;;5074778;28;20174;-81
2022/10/07 04:52:52;;;;;;;11.65;6.80;;;8.60;99.90;;;;;;5073174;28;20100;-81
2022/10/07 04:55:18;;;;;;;10.13;6.80;;;8.60;99.90;;;;;;5073429;28;20542;-81
2022/10/07 04:57:43;;;;;;;9.35;6.63;;;8.60;99.90;;;;;;5066995;28;20041;-82
2022/10/07 05:00:09;;;;;;;11.75;6.60;;;8.50;99.90;;;;;;5063407;28;20117;-82
2022/10/07 05:02:35;;;;;;;10.95;6.72;;;8.50;99.90;;;;;;5058090;28;20266;-82
2022/10/07 05:05:01;;;;;;;11.55;7.18;;;8.50;99.90;;;;;;5066710;28;20040;-81
2022/10/07 05:07:27;;;;;;;14.07;7.68;;;8.50;99.90;;;;;;5067408;28;20048;-81
2022/10/07 05:09:52;;;;;;;10.02;7.03;;;8.50;99.90;;;;;;5051266;28;20038;-81
2022/10/07 05:12:18;;;;;;;11.25;6.30;;;8.50;99.90;;;;;;5066662;28;20299;-81
2022/10/07 05:14:44;;;;;;;9.18;7.10;;;8.50;99.90;;;;;;5067816;28;20033;-80
2022/10/07 05:17:10;;;;;;;11.80;5.85;;;8.50;99.90;;;;;;5068788;28;20099;-82
2022/10/07 05:19:36;;;;;;;14.82;7.13;;;8.50;99.90;;;;;;5053519;28;20025;-81
2022/10/07 05:22:02;;;;;;;10.18;6.45;;;8.50;99.90;;;;;;5065554;28;20059;-81
2022/10/07 05:24:28;;;;;;;11.50;7.20;;;8.50;99.90;;;;;;5064291;28;20032;-82
2022/10/07 05:26:54;;;;;;;11.70;6.85;;;8.50;99.90;;;;;;5065383;28;20040;-82
2022/10/07 05:29:20;;;;;;;13.52;6.78;;;8.50;99.90;;;;;;5068821;28;20025;-82
2022/10/07 05:31:46;;;;;;;14.18;6.15;;;8.50;99.90;;;;;;5092247;28;20025;-82
2022/10/07 05:34:11;;;;;;;12.35;7.03;;;8.50;99.90;;;;;;5083881;28;20029;-82
2022/10/07 05:36:42;;;;;;;11.50;6.65;;;8.50;99.90;;;;;;5083938;28;20088;-83
2022/10/07 05:39:10;;;;;;;11.13;6.95;;;8.50;99.90;;;;;;5080488;28;20047;-82
2022/10/07 05:41:38;;;;;;;12.95;6.28;;;8.50;99.90;;;;;;5081706;28;20033;-82
2022/10/07 05:44:03;;;;;;;13.70;7.05;;;8.50;99.90;;;;;;5063111;28;20078;-81
2022/10/07 05:46:29;;;;;;;12.20;7.32;;;8.60;99.90;;;;;;5067991;28;20480;-82
2022/10/07 05:48:54;;;;;;;9.30;7.00;;;8.60;99.90;;;;;;5051522;28;20028;-81
2022/10/07 05:51:22;;;;;;;15.80;7.25;;;8.60;99.90;;;;;;5063102;28;20032;-79
2022/10/07 05:53:47;;;;;;;10.48;5.72;;;8.60;99.90;;;;;;5045714;28;20055;-83
2022/10/07 05:56:15;;;;;;;10.85;6.43;;;8.60;99.90;;;;;;5068519;28;20445;-82
2022/10/07 05:58:41;;;;;;;8.95;6.43;;;8.70;99.90;;;;;;5068811;28;20406;-84
2022/10/07 06:01:18;;;;;;;10.80;6.07;;;8.80;99.90;;;;;;5056126;28;20108;-80
2022/10/07 06:03:49;;;;;;;9.30;6.55;;;8.80;99.90;;;;;;5068960;28;20493;-82
2022/10/07 06:06:16;;;;;;;10.43;6.85;;;8.90;99.90;;;;;;5048911;28;20036;-83
2022/10/07 06:08:42;;;;;;;9.45;5.82;;;8.90;99.90;;;;;;5065501;28;20025;-82
2022/10/07 06:13:55;;;;;;;10.00;6.53;;;8.90;99.90;;;;;;5061077;28;20036;-81
2022/10/07 06:16:22;;;;;;;8.07;6.30;;;8.90;99.90;;;;;;5057154;28;20025;-81
2022/10/07 06:18:49;;;;;;;11.10;6.13;;;8.90;99.90;;;;;;5063890;28;20040;-81
2022/10/07 06:21:15;;;;;;;11.75;6.40;;;8.90;99.90;;;;;;5046515;28;20033;-82
2022/10/07 06:23:40;;;;;;;14.82;7.47;;;8.90;99.90;;;;;;5063585;28;20029;-82
2022/10/07 06:26:09;;;;;;;10.65;5.93;;;9.00;99.90;;;;;;5061958;28;20051;-83
2022/10/07 06:28:37;;;;;;;7.55;6.10;;;9.00;99.90;;;;;;5040427;28;20123;-84
2022/10/07 06:31:04;;;;;;;8.65;5.55;;;9.00;99.90;;;;;;5063799;28;20031;-83
2022/10/07 06:33:30;;;;;;;11.57;6.57;;;9.00;99.90;;;;;;5046027;28;20074;-81
2022/10/07 06:35:55;;;;;;;12.98;6.05;;;9.00;99.90;;;;;;5047401;28;20079;-83
2022/10/07 06:38:21;;;;;;;9.85;6.70;;;9.10;99.90;;;;;;5064823;28;20399;-81
2022/10/07 06:40:59;;;;;;;12.00;6.35;;;9.10;99.90;;;;;;5065915;28;20033;-81
2022/10/07 06:43:25;;;;;;;8.70;6.22;;;9.10;99.90;;;;;;5062844;28;20075;-83
2022/10/07 06:45:51;;;;;;;13.98;6.68;;;9.10;99.90;;;;;;5056183;28;20037;-83
2022/10/07 06:48:17;;;;;;;9.85;6.25;;;9.20;99.90;;;;;;5060498;28;20032;-83
2022/10/07 06:50:53;;;;;;;16.27;6.93;;;9.30;99.90;;;;;;5064456;28;20028;-82
2022/10/07 06:53:18;;;;;;;11.52;6.40;;;9.30;99.90;;;;;;5062800;28;20035;-82
2022/10/07 06:55:44;;;;;;;10.25;6.43;;;9.30;99.90;;;;;;5043505;28;20024;-82
2022/10/07 06:58:10;;;;;;;15.43;6.18;;;9.40;99.90;;;;;;5065206;28;20067;-82
2022/10/07 07:00:36;;;;;;;12.48;6.53;;;9.50;99.90;;;;;;5073434;28;20465;-84
2022/10/07 07:03:02;;;;;;;9.68;5.78;;;9.50;99.90;;;;;;5077126;28;20061;-82
2022/10/07 07:05:36;;;;;;;17.25;5.60;;;9.60;99.90;;;;;;5077246;28;20031;-83
2022/10/07 07:08:01;;;;;;;14.15;6.40;;;9.70;99.90;;;;;;5091585;28;20031;-82
2022/10/07 07:10:27;;;;;;;9.20;6.00;;;9.70;99.90;;;;;;5071632;28;20040;-82
2022/10/07 07:12:54;;;;;;;12.65;5.40;;;9.80;99.90;;;;;;5087240;28;20074;-82
2022/10/07 07:15:20;;;;;;;11.48;6.18;;;9.80;99.90;;;;;;5068335;28;20032;-84
2022/10/07 07:17:46;;;;;;;10.88;5.47;;;9.90;99.90;;;;;;5076109;28;20024;-83
2022/10/07 07:20:13;;;;;;;7.97;5.43;;;10.00;99.90;;;;;;5062438;28;20035;-82
2022/10/07 07:22:39;;;;;;;8.65;5.40;;;10.10;99.90;;;;;;5048377;28;20025;-82
2022/10/07 07:25:08;;;;;;;9.50;5.78;;;10.20;99.90;;;;;;5058351;28;20090;-82
2022/10/07 07:27:34;;;;;;;8.57;5.22;;;10.30;99.90;;;;;;5067554;28;20484;-82
2022/10/07 07:30:00;;;;;;;7.95;4.82;;;10.30;99.90;;;;;;5068654;28;20016;-83
2022/10/07 07:32:28;;;;;;;11.02;4.57;;;10.40;99.90;;;;;;5067845;28;20138;-82
2022/10/07 07:34:54;;;;;;;7.78;5.10;;;10.50;99.90;;;;;;5067691;28;20432;-83
2022/10/07 07:37:20;;;;;;;12.40;4.47;;;10.60;99.90;;;;;;5066737;28;20036;-83
2022/10/07 07:39:46;;;;;;;10.65;4.82;;;10.70;99.90;;;;;;5061990;28;20029;-82
2022/10/07 07:42:11;;;;;;;6.70;4.72;;;10.80;99.90;;;;;;5068629;28;20076;-83
2022/10/07 07:44:39;;;;;;;8.63;4.07;;;10.80;99.90;;;;;;5088113;28;20040;-81
2022/10/07 07:47:05;;;;;;;8.10;4.55;;;10.90;99.90;;;;;;5066381;28;20039;-81
2022/10/07 07:49:32;;;;;;;7.10;4.18;;;11.00;99.90;;;;;;5058068;28;20498;-81
2022/10/07 07:51:58;;;;;;;6.13;3.60;;;11.10;99.90;;;;;;5062258;28;20029;-82
2022/10/07 07:54:26;;;;;;;8.82;4.78;;;11.20;99.90;;;;;;5088050;28;20059;-85
2022/10/07 07:56:55;;;;;;;7.70;3.97;;;11.30;99.90;;;;;;5069775;28;20043;-81
2022/10/07 07:59:23;;;;;;;7.88;4.03;;;11.40;99.90;;;;;;5069160;28;20052;-81
2022/10/07 08:01:49;;;;;;;9.07;3.75;;;11.50;99.90;;;;;;5068024;28;20533;-81
2022/10/07 08:04:15;;;;;;;9.60;3.88;;;11.60;99.90;;;;;;5067723;28;20108;-81
2022/10/07 08:06:41;;;;;;;8.88;4.05;;;11.60;99.90;;;;;;5066816;28;20024;-82
2022/10/07 08:09:07;;;;;;;8.10;3.60;;;11.80;99.90;;;;;;5067725;28;20116;-81
2022/10/07 08:11:33;;;;;;;5.18;3.35;;;11.80;99.90;;;;;;5067469;28;20104;-82
2022/10/07 08:13:59;;;;;;;5.35;3.38;;;11.90;99.90;;;;;;5068040;28;20557;-82
2022/10/07 08:16:27;;;;;;;7.70;3.58;;;12.00;99.90;;;;;;5058404;28;20112;-82
2022/10/07 08:18:54;;;;;;;7.60;4.00;;;12.10;99.90;;;;;;5048408;28;20017;-81
2022/10/07 08:21:22;;;;;;;6.82;3.58;;;12.20;99.90;;;;;;5067184;28;20029;-84
2022/10/07 08:23:52;;;;;;;5.18;2.83;;;12.30;99.90;;;;;;5049023;28;20035;-82
2022/10/07 08:26:17;;;;;;;6.78;2.85;;;12.40;99.90;;;;;;5067284;28;20371;-81
2022/10/07 08:28:43;;;;;;;4.15;2.90;;;12.50;99.90;;;;;;5068268;28;20086;-83
2022/10/07 08:31:14;;;;;;;8.68;3.13;;;12.60;99.90;;;;;;5067979;28;20090;-84
2022/10/07 08:33:43;;;;;;;5.80;3.33;;;12.70;99.90;;;;;;5057813;28;20486;-81
2022/10/07 08:36:12;;;;;;;8.75;3.30;;;12.80;99.90;;;;;;5059614;28;20347;-83
2022/10/07 08:38:39;;;;;;;5.95;3.30;;;13.00;99.90;;;;;;5068670;28;20056;-82
2022/10/07 08:41:07;;;;;;;5.63;2.95;;;13.10;99.90;;;;;;5069376;28;20037;-82
2022/10/07 08:43:35;;;;;;;7.97;2.90;;;13.20;99.90;;;;;;5050355;28;20546;-82
2022/10/07 08:46:03;;;;;;;5.07;3.13;;;13.30;99.90;;;;;;5069470;28;20036;-81
2022/10/07 08:48:32;;;;;;;6.63;2.78;;;13.40;99.90;;;;;;5074684;28;20033;-80
2022/10/07 08:51:12;;;;;;;4.05;2.97;;;13.50;99.90;;;;;;5077516;28;20024;-82
2022/10/07 08:53:39;;;;;;;6.75;3.97;;;13.70;99.90;;;;;;5067055;28;20032;-80
2022/10/07 08:56:13;;;;;;;8.88;3.00;;;13.80;99.90;;;;;;5081096;28;20036;-81
2022/10/07 08:59:03;;;;;;;4.88;3.28;;;13.90;99.90;;;;;;5089552;28;20036;-81
2022/10/07 09:02:07;;;;;;;9.82;2.53;;;14.00;99.90;;;;;;5073780;28;20027;-81
2022/10/07 09:04:44;;;;;;;4.03;2.05;;;14.10;99.90;;;;;;5072699;28;20433;-83
2022/10/07 09:07:12;;;;;;;5.65;3.05;;;14.20;99.90;;;;;;5053324;28;20036;-82
2022/10/07 09:09:43;;;;;;;6.15;3.20;;;14.30;99.90;;;;;;5071800;28;20028;-81
2022/10/07 09:12:15;;;;;;;5.80;3.50;;;14.40;99.90;;;;;;5070978;28;20573;-82
2022/10/07 09:14:45;;;;;;;7.38;2.42;;;14.40;99.90;;;;;;5071053;28;20024;-82
2022/10/07 09:17:17;;;;;;;5.45;2.25;;;14.50;99.90;;;;;;5071865;28;20417;-83
2022/10/07 09:19:47;;;;;;;9.23;2.70;;;14.70;99.90;;;;;;5072798;28;20485;-83
2022/10/07 09:22:24;;;;;;;10.90;4.72;;;14.80;99.90;;;;;;5074066;28;20072;-82
2022/10/07 09:24:58;;;;;;;4.05;2.05;;;14.90;99.90;;;;;;5075279;28;20067;-82
2022/10/07 09:27:25;;;;;;;3.30;2.05;;;15.00;99.90;;;;;;5092460;28;20028;-81
2022/10/07 09:29:51;;;;;;;2.72;1.38;;;15.20;99.90;;;;;;5079620;28;20017;-81
2022/10/07 09:32:17;;;;;;;8.40;2.20;;;15.20;99.90;;;;;;5089673;28;20129;-83
2022/10/07 09:34:44;;;;;;;4.60;1.92;;;15.30;99.90;;;;;;5097219;28;20020;-81
2022/10/07 09:37:19;;;;;;;5.45;2.20;;;15.40;99.90;;;;;;5090997;28;20059;-82
2022/10/07 09:39:50;;;;;;;3.90;1.55;;;15.50;99.90;;;;;;5075583;28;20078;-82
2022/10/07 09:42:28;;;;;;;5.05;1.92;;;15.60;99.90;;;;;;5070649;28;20032;-83
2022/10/07 09:44:56;;;;;;;3.65;1.85;;;15.70;99.90;;;;;;5086016;28;20028;-84
2022/10/07 09:47:27;;;;;;;6.28;1.80;;;15.80;99.90;;;;;;5081894;28;20086;-84
2022/10/07 09:49:55;;;;;;;4.20;1.97;;;15.90;99.90;;;;;;5071107;28;20024;-82
2022/10/07 09:52:23;;;;;;;3.65;1.85;;;16.10;99.90;;;;;;5064139;28;20039;-82
2022/10/07 09:54:51;;;;;;;6.40;2.10;;;16.10;99.90;;;;;;5050738;28;20711;-82
2022/10/07 09:57:34;;;;;;;5.07;2.05;;;16.30;99.90;;;;;;5049772;28;20094;-82
2022/10/07 10:00:12;;;;;;;7.22;1.77;;;16.40;99.90;;;;;;5064225;28;20052;-81
2022/10/07 10:02:50;;;;;;;7.45;2.15;;;16.50;99.90;;;;;;5072948;28;20375;-81
2022/10/07 10:05:28;;;;;;;5.13;1.70;;;16.60;99.90;;;;;;5068988;28;20021;-82
2022/10/07 10:08:22;;;;;;;3.40;1.77;;;16.80;99.90;;;;;;5063748;28;20489;-82
2022/10/07 10:10:56;;;;;;;6.45;1.70;;;16.90;99.90;;;;;;5064062;28;20827;-82
2022/10/07 10:13:32;;;;;;;2.63;1.38;;;17.10;99.90;;;;;;5072752;28;20520;-82
2022/10/07 10:16:00;;;;;;;3.88;2.78;;;17.20;99.90;;;;;;5070823;28;20032;-83
2022/10/07 10:18:27;;;;;;;3.58;1.70;;;17.30;99.90;;;;;;5061562;28;20052;-84
2022/10/07 10:20:53;;;;;;;3.00;1.42;;;17.40;99.90;;;;;;5075318;28;20028;-83
2022/10/07 10:23:27;;;;;;;6.20;1.67;;;17.40;99.90;;;;;;5081816;28;20060;-82
2022/10/07 10:26:26;;;;;;;4.43;1.83;;;17.50;99.90;;;;;;5069327;28;20028;-82
2022/10/07 10:29:00;;;;;;;10.75;1.63;;;17.60;99.90;;;;;;5071910;28;20690;-83
2022/10/07 10:31:52;;;;;;;3.25;1.58;;;17.70;99.80;;;;;;5085604;28;20033;-83
2022/10/07 10:34:34;;;;;;;4.80;1.20;;;17.80;99.80;;;;;;5049576;28;20545;-83
2022/10/07 10:37:07;;;;;;;2.95;0.88;;;17.90;99.40;;;;;;5068968;28;20546;-82
2022/10/07 10:39:59;;;;;;;2.30;1.20;;;18.10;98.50;;;;;;5051316;28;20482;-83
2022/10/07 10:42:48;;;;;;;4.05;1.00;;;18.20;98.40;;;;;;5050686;28;20043;-82
2022/10/07 10:45:31;;;;;;;6.10;1.25;;;18.30;97.80;;;;;;5072242;28;20021;-82
2022/10/07 10:48:03;;;;;;;3.90;1.23;;;18.40;97.90;;;;;;5050709;28;20024;-82
2022/10/07 10:50:51;;;;;;;3.50;1.00;;;18.50;97.10;;;;;;5069690;28;20040;-83
2022/10/07 10:53:34;;;;;;;3.47;1.23;;;18.60;96.70;;;;;;5068529;28;20365;-82
2022/10/07 10:56:30;;;;;;;2.42;1.23;;;18.60;96.20;;;;;;5068695;28;20036;-83
2022/10/07 10:59:08;;;;;;;5.40;1.45;;;18.60;96.30;;;;;;5062475;28;20021;-83
2022/10/07 11:01:37;;;;;;;4.72;1.40;;;18.60;96.70;;;;;;5078129;28;20027;-84
2022/10/07 11:04:25;;;;;;;3.10;0.90;;;18.70;96.60;;;;;;5053177;28;20033;-83
2022/10/07 11:06:59;;;;;;;3.45;1.13;;;18.80;95.70;;;;;;5066761;28;20034;-83
2022/10/07 11:09:38;;;;;;;3.10;1.38;;;18.90;95.20;;;;;;5056761;28;20048;-83
2022/10/07 11:12:13;;;;;;;4.95;1.17;;;18.90;96.10;;;;;;5049893;28;20469;-84
2022/10/07 11:14:46;;;;;;;6.40;1.27;;;18.90;95.90;;;;;;5064965;28;20078;-84
2022/10/07 11:17:14;;;;;;;3.60;1.13;;;19.00;95.60;;;;;;5063815;28;20025;-83
2022/10/07 11:20:10;;;;;;;4.45;1.17;;;19.10;95.40;;;;;;5068841;28;20056;-83
2022/10/07 11:22:41;;;;;;;2.47;0.93;;;19.20;95.40;;;;;;5049867;28;20151;-83
2022/10/07 11:25:24;;;;;;;2.50;1.33;;;19.30;95.90;;;;;;5065436;28;20096;-83
2022/10/07 11:27:50;;;;;;;;;;;19.60;96.10;;;;;;5074138;28;20051;-83
2022/10/07 11:30:17;;;;;;;6.50;1.63;;;19.70;95.30;;;;;;5041839;28;20294;-83
2022/10/07 11:32:46;;;;;;;3.90;1.38;;;19.80;95.20;;;;;;5068877;28;20155;-83
2022/10/07 11:35:35;;;;;;;4.47;1.23;;;19.90;94.10;;;;;;5066949;28;20386;-83
2022/10/07 11:38:15;;;;;;;2.35;0.90;;;20.00;94.90;;;;;;5063432;28;20029;-84
2022/10/07 11:40:47;;;;;;;6.13;1.05;;;20.10;93.90;;;;;;5059989;28;20024;-84
2022/10/07 11:43:21;;;;;;;4.93;1.10;;;20.20;93.80;;;;;;5067666;28;20031;-83
2022/10/07 11:45:51;;;;;;;2.80;0.82;;;20.30;93.60;;;;;;5067927;28;20037;-82
2022/10/07 11:48:26;;;;;;;10.25;1.45;;;20.40;94.20;;;;;;5068615;28;20033;-84
2022/10/07 11:50:58;;;;;;;3.65;1.20;;;20.50;93.30;;;;;;5051166;28;20028;-83
2022/10/07 11:53:27;;;;;;;3.50;1.38;;;20.60;93.80;;;;;;5068124;28;20391;-83
2022/10/07 11:56:00;;;;;;;2.00;0.90;;;20.60;93.00;;;;;;5067377;28;20051;-85
2022/10/07 11:58:37;;;;;;;5.40;1.00;;;20.70;92.70;;;;;;5069052;28;20021;-83
2022/10/07 12:01:35;;;;;;;3.60;1.10;;;20.80;92.50;;;;;;5078576;28;20027;-84
2022/10/07 12:04:34;;;;;;;1.60;0.65;;;20.90;92.20;;;;;;5069535;28;20032;-83
2022/10/07 12:07:30;;;;;;;3.72;1.23;;;21.00;91.70;;;;;;5087485;28;20115;-83
2022/10/07 12:10:00;;;;;;;2.92;1.02;;;21.00;90.80;;;;;;5051351;28;20037;-83
2022/10/07 12:12:50;;;;;;;4.72;0.85;;;21.00;91.40;;;;;;5056527;28;20470;-84
2022/10/07 12:15:34;;;;;;;4.65;0.93;;;21.00;90.50;;;;;;5068615;28;20029;-83
2022/10/07 12:18:02;;;;;;;2.08;0.88;;;21.00;90.60;;;;;;5056753;28;20032;-82
2022/10/07 12:20:34;;;;;;;2.22;0.98;;;21.00;91.30;;;;;;5088047;28;20028;-83
2022/10/07 12:25:46;;;;;;;1.90;0.90;;;21.10;91.20;;;;;;5079652;28;20040;-83
2022/10/07 12:28:34;;;;;;;2.63;1.02;;;21.10;90.70;;;;;;5075328;28;20099;-83
2022/10/07 12:31:04;;;;;;;4.95;1.15;;;21.20;90.90;;;;;;5085398;28;20036;-81
2022/10/07 12:33:42;;;;;;;5.72;0.65;;;21.20;90.40;;;;;;5076070;28;20078;-82
2022/10/07 12:36:17;;;;;;;7.63;2.20;;;21.20;90.20;;;;;;5073483;28;20111;-84
2022/10/07 12:38:56;;;;;;;2.55;0.70;;;21.20;90.90;;;;;;5071995;28;20055;-83
2022/10/07 12:41:26;;;;;;;2.80;0.73;;;21.20;90.60;;;;;;5072109;28;20506;-83
2022/10/07 12:44:26;;;;;;;5.20;0.95;;;21.30;90.50;;;;;;5071178;28;20074;-82
2022/10/07 12:47:00;;;;;;;5.38;1.20;;;21.40;90.00;;;;;;5069481;28;20537;-83
2022/10/07 12:49:35;;;;;;;2.53;0.73;;;21.50;90.60;;;;;;5071314;28;20506;-82
2022/10/07 12:52:40;;;;;;;6.78;1.13;;;21.60;90.60;;;;;;5070586;28;20053;-83
2022/10/07 12:55:17;;;;;;;4.13;1.00;;;21.60;90.20;;;;;;5064430;28;20032;-82
2022/10/07 12:57:49;;;;;;;7.70;1.45;;;21.60;91.00;;;;;;5049543;28;20025;-83
2022/10/07 13:00:23;;;;;;;3.77;0.97;;;21.60;90.60;;;;;;5051001;28;20035;-82
2022/10/07 13:03:25;;;;;;;2.95;1.00;;;21.70;90.10;;;;;;5065519;28;20283;-83
2022/10/07 13:06:27;;;;;;;4.30;1.08;;;21.80;90.50;;;;;;5059995;28;20024;-81
2022/10/07 13:09:10;;;;;;;3.58;0.88;;;21.80;90.40;;;;;;5069995;28;20043;-83
2022/10/07 13:11:58;;;;;;;7.07;1.25;;;21.90;90.10;;;;;;5050504;28;20028;-81
2022/10/07 13:14:49;;;;;;;3.60;1.08;;;21.90;90.50;;;;;;5048873;28;20402;-82
2022/10/07 13:17:38;;;;;;;4.82;1.00;;;22.00;89.80;;;;;;5064120;28;20047;-84
2022/10/07 13:20:22;;;;;;;3.83;0.80;;;22.00;90.50;;;;;;5064099;28;20063;-82